Time;durP1;ratioP1;P1;durP2;ratioP2;P2;SDS_P1;SDS_P2;PMS_P1;PMS_P2;Temp;Humidity;BMP_temperature;BMP_pressure;BME280_temperature;BME280_humidity;BME280_pressure;Samples;Min_cycle;Max_cycle;Signal;HPM_P1;HPM_P2
2022/04/25 00:01:24;;;;;;;2.40;1.60;;;9.00;99.90;;;;;;5034272;28;20244;-84
2022/04/25 00:03:50;;;;;;;6.10;1.30;;;9.00;99.90;;;;;;5017630;28;20276;-85
2022/04/25 00:06:16;;;;;;;2.53;1.33;;;8.90;99.90;;;;;;5033382;28;20234;-86
2022/04/25 00:08:42;;;;;;;1.83;1.73;;;8.90;99.90;;;;;;5033059;28;20281;-86
2022/04/25 00:11:07;;;;;;;5.97;2.13;;;8.90;99.90;;;;;;5034857;28;20230;-86
2022/04/25 00:13:33;;;;;;;2.30;1.63;;;8.90;99.90;;;;;;5033892;28;20245;-86
2022/04/25 00:16:00;;;;;;;1.00;1.00;;;8.90;99.90;;;;;;5049738;28;20241;-86
2022/04/25 00:18:26;;;;;;;1.20;1.07;;;8.90;99.90;;;;;;5032747;28;20227;-85
2022/04/25 00:20:51;;;;;;;6.07;1.73;;;9.00;99.90;;;;;;5032717;28;20203;-85
2022/04/25 00:23:17;;;;;;;3.90;2.10;;;9.00;99.90;;;;;;5033324;28;20204;-85
2022/04/25 00:25:43;;;;;;;2.03;1.40;;;9.00;99.90;;;;;;5040665;28;20276;-85
2022/04/25 00:28:09;;;;;;;2.33;1.80;;;9.10;99.90;;;;;;5033168;28;20222;-85
2022/04/25 00:30:35;;;;;;;2.93;1.07;;;9.10;99.90;;;;;;5048191;28;20305;-85
2022/04/25 00:33:02;;;;;;;2.33;0.93;;;9.20;99.90;;;;;;5035176;28;21101;-85
2022/04/25 00:35:28;;;;;;;1.63;1.40;;;9.20;99.90;;;;;;5050537;28;20723;-85
2022/04/25 00:37:54;;;;;;;0.97;0.97;;;9.20;99.90;;;;;;5035366;28;20523;-85
2022/04/25 00:40:21;;;;;;;0.57;0.57;;;9.20;99.90;;;;;;5023691;28;20229;-85
2022/04/25 00:42:48;;;;;;;3.03;1.30;;;9.20;99.90;;;;;;5031125;28;20367;-85
2022/04/25 00:45:14;;;;;;;1.80;1.43;;;9.20;99.90;;;;;;5031798;28;20307;-85
2022/04/25 00:47:42;;;;;;;3.40;2.57;;;9.20;99.90;;;;;;5048376;28;20813;-85
2022/04/25 00:50:09;;;;;;;1.20;1.07;;;9.20;99.90;;;;;;5032492;28;20268;-85
2022/04/25 00:52:36;;;;;;;1.80;1.10;;;9.20;99.90;;;;;;5046435;28;20233;-86
2022/04/25 00:55:04;;;;;;;1.70;1.30;;;9.30;99.90;;;;;;5034723;28;20679;-86
2022/04/25 00:57:31;;;;;;;0.87;0.80;;;9.30;99.90;;;;;;5033843;28;20284;-86
2022/04/25 00:59:58;;;;;;;2.63;1.03;;;9.30;99.90;;;;;;5033691;28;20199;-86
2022/04/25 01:02:27;;;;;;;2.00;1.07;;;9.30;99.90;;;;;;5035563;28;20194;-86
2022/04/25 01:05:00;;;;;;;5.60;2.50;;;9.30;99.90;;;;;;5042171;28;20226;-86
2022/04/25 01:07:26;;;;;;;0.57;0.57;;;9.30;99.90;;;;;;5051189;28;20235;-87
2022/04/25 01:09:52;;;;;;;2.53;1.13;;;9.20;99.90;;;;;;5032764;28;20771;-86
2022/04/25 01:12:18;;;;;;;2.53;2.37;;;9.30;99.90;;;;;;5033978;28;20222;-86
2022/04/25 01:14:44;;;;;;;1.67;1.27;;;9.30;99.90;;;;;;5035247;28;20195;-86
2022/04/25 01:17:09;;;;;;;1.77;1.50;;;9.20;99.90;;;;;;5032412;28;20280;-87
2022/04/25 01:19:35;;;;;;;1.40;1.00;;;9.20;99.90;;;;;;5032785;28;20706;-87
2022/04/25 01:22:13;;;;;;;3.13;1.90;;;9.20;99.90;;;;;;5033436;28;20229;-86
2022/04/25 01:27:23;;;;;;;1.70;1.37;;;9.20;99.90;;;;;;5033127;28;20237;-85
2022/04/25 01:29:54;;;;;;;1.17;0.97;;;9.20;99.90;;;;;;5032747;28;20206;-86
2022/04/25 01:32:22;;;;;;;5.63;1.67;;;9.20;99.90;;;;;;5032664;28;20193;-85
2022/04/25 01:34:48;;;;;;;2.47;1.80;;;9.20;99.90;;;;;;5028964;28;20218;-85
2022/04/25 01:37:16;;;;;;;1.63;1.33;;;9.10;99.90;;;;;;5034314;28;20296;-85
2022/04/25 01:39:52;;;;;;;3.70;2.50;;;9.10;99.90;;;;;;5032045;28;20222;-83
2022/04/25 01:42:20;;;;;;;2.57;1.13;;;9.10;99.90;;;;;;5031793;28;20205;-85
2022/04/25 01:44:46;;;;;;;3.63;2.17;;;9.10;99.90;;;;;;5033011;28;20204;-85
2022/04/25 01:47:12;;;;;;;8.70;2.23;;;9.10;99.90;;;;;;5031548;28;20265;-85
2022/04/25 01:49:38;;;;;;;2.80;2.03;;;9.10;99.90;;;;;;5028742;28;20308;-85
2022/04/25 01:52:06;;;;;;;4.00;1.83;;;9.00;99.90;;;;;;5030845;28;20225;-87
2022/04/25 01:54:32;;;;;;;1.83;1.43;;;9.00;99.90;;;;;;5031503;28;20229;-85
2022/04/25 01:57:00;;;;;;;1.57;1.47;;;9.00;99.90;;;;;;5023954;28;20261;-85
2022/04/25 01:59:26;;;;;;;0.93;0.93;;;9.00;99.90;;;;;;5052166;28;20208;-86
2022/04/25 02:01:53;;;;;;;4.47;1.53;;;9.00;99.90;;;;;;5035159;28;20233;-86
2022/04/25 02:04:19;;;;;;;1.73;1.63;;;9.00;99.90;;;;;;5033788;28;20301;-86
2022/04/25 02:06:46;;;;;;;2.23;2.10;;;9.00;99.90;;;;;;5031650;28;20234;-86
2022/04/25 02:09:12;;;;;;;1.67;1.07;;;9.00;99.90;;;;;;5034632;28;20209;-86
2022/04/25 02:11:37;;;;;;;2.50;1.33;;;9.00;99.90;;;;;;5034832;28;20196;-86
2022/04/25 02:14:04;;;;;;;1.80;1.70;;;9.00;99.90;;;;;;5051277;28;20319;-86
2022/04/25 02:16:30;;;;;;;2.63;1.50;;;8.90;99.90;;;;;;5034741;28;21094;-86
2022/04/25 02:18:55;;;;;;;2.53;1.63;;;8.90;99.90;;;;;;5035766;28;20275;-86
2022/04/25 02:21:22;;;;;;;3.17;2.57;;;8.90;99.90;;;;;;5034332;28;20679;-85
2022/04/25 02:23:48;;;;;;;3.63;1.57;;;8.90;99.90;;;;;;5036294;28;20201;-85
2022/04/25 02:26:14;;;;;;;6.47;2.13;;;8.90;99.90;;;;;;5036326;28;20237;-84
2022/04/25 02:28:40;;;;;;;3.40;3.20;;;8.80;99.90;;;;;;5025124;28;21044;-85
2022/04/25 02:31:07;;;;;;;2.13;1.37;;;8.80;99.90;;;;;;5025954;28;20250;-85
2022/04/25 02:33:33;;;;;;;3.37;1.90;;;8.80;99.90;;;;;;5034832;28;20330;-85
2022/04/25 02:36:00;;;;;;;4.57;3.67;;;8.90;99.90;;;;;;5032664;28;20190;-86
2022/04/25 02:38:26;;;;;;;2.47;1.77;;;8.90;99.90;;;;;;5033948;28;20198;-85
2022/04/25 02:41:04;;;;;;;4.40;2.53;;;8.90;99.90;;;;;;5026806;28;20226;-85
2022/04/25 02:43:31;;;;;;;3.37;1.93;;;8.80;99.90;;;;;;5035325;28;21126;-85
2022/04/25 02:45:57;;;;;;;5.37;2.13;;;8.90;99.90;;;;;;5047494;28;20246;-85
2022/04/25 02:48:23;;;;;;;4.27;2.03;;;8.80;99.90;;;;;;5034860;28;20229;-84
2022/04/25 02:50:49;;;;;;;2.20;1.97;;;8.80;99.90;;;;;;5050014;28;20201;-84
2022/04/25 02:53:15;;;;;;;3.07;2.00;;;8.80;99.90;;;;;;5025238;28;20643;-87
2022/04/25 02:55:41;;;;;;;2.97;2.67;;;8.80;99.90;;;;;;5051837;28;20226;-84
2022/04/25 02:58:09;;;;;;;2.43;1.77;;;8.90;99.90;;;;;;5029987;28;20880;-85
2022/04/25 03:00:35;;;;;;;1.60;1.50;;;8.90;99.90;;;;;;5042057;28;20210;-87
2022/04/25 03:03:01;;;;;;;3.83;2.37;;;8.80;99.90;;;;;;5035454;28;20194;-86
2022/04/25 03:05:27;;;;;;;3.30;1.27;;;8.90;99.90;;;;;;5047197;28;20282;-86
2022/04/25 03:07:54;;;;;;;2.80;2.47;;;8.90;99.90;;;;;;5049641;28;20233;-85
2022/04/25 03:10:19;;;;;;;2.63;2.00;;;8.90;99.90;;;;;;5034259;28;20226;-86
2022/04/25 03:12:45;;;;;;;5.27;1.63;;;8.90;99.90;;;;;;5031741;28;20269;-85
2022/04/25 03:15:11;;;;;;;2.30;1.53;;;9.00;99.90;;;;;;5035870;28;20240;-85
2022/04/25 03:17:38;;;;;;;3.03;2.33;;;9.00;99.90;;;;;;5032971;28;20631;-86
2022/04/25 03:20:05;;;;;;;1.33;1.23;;;9.00;99.90;;;;;;5037499;28;20222;-86
2022/04/25 03:22:31;;;;;;;1.47;1.33;;;9.00;99.90;;;;;;5035514;28;20690;-85
2022/04/25 03:24:57;;;;;;;2.50;1.10;;;9.00;99.90;;;;;;5035816;28;20275;-88
2022/04/25 03:27:23;;;;;;;3.00;1.60;;;9.00;99.90;;;;;;5036034;28;20721;-86
2022/04/25 03:29:48;;;;;;;2.37;1.73;;;9.00;99.90;;;;;;5035206;28;20192;-87
2022/04/25 03:32:15;;;;;;;1.80;1.43;;;9.00;99.90;;;;;;5034637;28;20213;-86
2022/04/25 03:34:42;;;;;;;3.37;1.47;;;8.90;99.90;;;;;;5035209;28;20218;-87
2022/04/25 03:37:11;;;;;;;2.43;1.27;;;8.90;99.90;;;;;;5052441;28;20229;-86
2022/04/25 03:39:37;;;;;;;1.20;1.13;;;8.90;99.90;;;;;;5051847;28;20296;-86
2022/04/25 03:42:03;;;;;;;3.47;1.37;;;8.90;99.90;;;;;;5050224;28;20206;-87
2022/04/25 03:44:29;;;;;;;2.80;1.43;;;8.90;99.90;;;;;;5034253;28;20277;-87
2022/04/25 03:46:55;;;;;;;2.63;2.40;;;8.90;99.90;;;;;;5050458;28;20287;-86
2022/04/25 03:49:21;;;;;;;1.03;1.03;;;8.90;99.90;;;;;;5037547;28;20373;-87
2022/04/25 03:51:47;;;;;;;2.73;2.13;;;8.90;99.90;;;;;;5032317;28;20227;-85
2022/04/25 03:57:09;;;;;;;2.00;1.90;;;8.90;99.90;;;;;;5050195;28;20714;-87
2022/04/25 03:57:11;;;;;;;7.60;2.20;;;8.90;99.90;;;;;;5050249;28;20196;-87
2022/04/25 03:59:36;;;;;;;8.83;1.17;;;8.90;99.90;;;;;;5034986;28;20518;-86
2022/04/25 04:02:04;;;;;;;4.17;1.50;;;8.90;99.90;;;;;;5026078;28;20300;-86
2022/04/25 04:04:30;;;;;;;1.50;1.40;;;8.90;99.90;;;;;;5027410;28;20232;-86
2022/04/25 04:06:56;;;;;;;1.37;1.37;;;8.90;99.90;;;;;;5026862;28;20749;-86
2022/04/25 04:12:05;;;;;;;2.67;1.17;;;8.90;99.90;;;;;;5047373;28;20650;-87
2022/04/25 04:14:31;;;;;;;1.90;1.57;;;8.90;99.90;;;;;;5043103;28;20204;-86
2022/04/25 04:16:58;;;;;;;1.33;1.23;;;8.90;99.90;;;;;;5034441;28;20225;-87
2022/04/25 04:19:25;;;;;;;2.23;2.03;;;8.80;99.90;;;;;;5035527;28;20244;-88
2022/04/25 04:21:52;;;;;;;2.70;2.50;;;8.80;99.90;;;;;;5049174;28;20271;-86
2022/04/25 04:24:18;;;;;;;5.13;1.37;;;8.80;99.90;;;;;;5034211;28;20218;-85
2022/04/25 04:26:44;;;;;;;4.50;1.40;;;8.80;99.90;;;;;;5023678;28;20703;-85
2022/04/25 04:29:09;;;;;;;1.47;1.37;;;8.80;99.90;;;;;;5032580;28;20293;-87
2022/04/25 04:31:35;;;;;;;1.40;1.30;;;8.80;99.90;;;;;;5032429;28;20242;-84
2022/04/25 04:34:01;;;;;;;4.00;2.30;;;8.90;99.90;;;;;;5032714;28;20214;-87
2022/04/25 04:36:27;;;;;;;0.90;0.90;;;8.90;99.90;;;;;;5032709;28;21091;-84
2022/04/25 04:38:52;;;;;;;4.27;1.43;;;8.90;99.90;;;;;;5030493;28;20202;-84
2022/04/25 04:41:18;;;;;;;2.53;1.50;;;8.90;99.90;;;;;;5025448;28;20877;-85
2022/04/25 04:43:44;;;;;;;2.27;1.63;;;8.90;99.90;;;;;;5036531;28;20697;-85
2022/04/25 04:46:10;;;;;;;1.17;1.07;;;8.90;99.90;;;;;;5022700;28;20235;-83
2022/04/25 04:48:36;;;;;;;0.70;0.70;;;8.90;99.90;;;;;;5021484;28;20242;-83
2022/04/25 04:51:02;;;;;;;4.30;2.03;;;8.90;99.90;;;;;;5034314;28;20186;-83
2022/04/25 04:53:27;;;;;;;4.33;2.33;;;8.90;99.90;;;;;;5029409;28;20195;-84
2022/04/25 04:55:53;;;;;;;2.27;1.50;;;8.90;99.90;;;;;;5046871;28;20284;-84
2022/04/25 04:58:19;;;;;;;2.60;2.40;;;8.80;99.90;;;;;;5047647;28;20234;-83
2022/04/25 05:00:46;;;;;;;1.93;1.27;;;8.90;99.90;;;;;;5049116;28;20780;-86
2022/04/25 05:03:15;;;;;;;2.30;1.83;;;8.80;99.90;;;;;;5030541;28;20233;-87
2022/04/25 05:05:45;;;;;;;2.40;1.33;;;8.80;99.90;;;;;;5052882;28;20245;-86
2022/04/25 05:08:11;;;;;;;1.47;1.37;;;8.90;99.90;;;;;;5028551;28;20210;-82
2022/04/25 05:10:37;;;;;;;1.43;1.33;;;8.90;99.90;;;;;;5031764;28;20217;-84
2022/04/25 05:13:03;;;;;;;1.03;0.93;;;8.90;99.90;;;;;;5029892;28;20632;-84
2022/04/25 05:15:30;;;;;;;0.90;0.70;;;8.90;99.90;;;;;;5050421;28;20233;-87
2022/04/25 05:17:55;;;;;;;0.77;0.77;;;8.90;99.90;;;;;;5036987;28;20232;-83
2022/04/25 05:20:23;;;;;;;2.83;1.63;;;8.90;99.90;;;;;;5035276;28;20190;-84
2022/04/25 05:22:50;;;;;;;1.83;1.30;;;8.90;99.90;;;;;;5034557;28;20694;-82
2022/04/25 05:25:18;;;;;;;5.60;1.53;;;8.90;99.90;;;;;;5034196;28;20589;-83
2022/04/25 05:27:45;;;;;;;1.40;1.30;;;8.90;99.90;;;;;;5033434;28;20222;-83
2022/04/25 05:30:12;;;;;;;1.30;1.20;;;8.90;99.90;;;;;;5027278;28;20222;-83
2022/04/25 05:32:42;;;;;;;5.60;1.37;;;8.90;99.90;;;;;;5035369;28;20186;-83
2022/04/25 05:35:08;;;;;;;1.70;1.57;;;8.90;99.90;;;;;;5030021;28;20230;-85
2022/04/25 05:37:34;;;;;;;6.47;1.63;;;9.00;99.90;;;;;;5034611;28;20230;-86
2022/04/25 05:40:00;;;;;;;4.70;1.97;;;8.90;99.90;;;;;;5028712;28;20317;-84
2022/04/25 05:42:26;;;;;;;1.87;1.13;;;9.00;99.90;;;;;;5033284;28;20217;-83
2022/04/25 05:44:52;;;;;;;10.87;2.27;;;9.00;99.90;;;;;;5029670;28;20244;-84
2022/04/25 05:47:17;;;;;;;3.43;1.33;;;9.00;99.90;;;;;;5030264;28;20300;-84
2022/04/25 05:52:28;;;;;;;1.60;1.50;;;8.90;99.90;;;;;;5034735;28;20226;-84
2022/04/25 05:54:54;;;;;;;3.73;1.90;;;9.00;99.90;;;;;;5047775;28;20559;-83
2022/04/25 05:57:20;;;;;;;5.23;1.50;;;9.00;99.90;;;;;;5026801;28;20222;-83
2022/04/25 05:59:45;;;;;;;2.40;1.70;;;9.00;99.90;;;;;;5048578;28;20189;-82
2022/04/25 06:02:11;;;;;;;1.87;1.27;;;9.00;99.90;;;;;;5048832;28;20800;-82
2022/04/25 06:04:37;;;;;;;1.70;1.27;;;9.10;99.90;;;;;;5032811;28;20222;-83
2022/04/25 06:07:04;;;;;;;4.63;2.27;;;9.00;99.90;;;;;;5048821;28;20520;-83
2022/04/25 06:09:30;;;;;;;5.27;1.30;;;9.10;99.90;;;;;;5032316;28;20742;-83
2022/04/25 06:11:55;;;;;;;2.17;0.87;;;9.00;99.90;;;;;;5035433;28;20309;-84
2022/04/25 06:14:24;;;;;;;3.17;2.07;;;9.00;99.90;;;;;;5028038;28;20260;-84
2022/04/25 06:16:49;;;;;;;1.47;1.37;;;9.10;99.90;;;;;;5024163;28;20226;-84
2022/04/25 06:19:15;;;;;;;6.03;1.73;;;9.00;99.90;;;;;;5029327;28;20623;-85
2022/04/25 06:21:41;;;;;;;1.60;1.00;;;9.00;99.90;;;;;;5019232;28;20292;-83
2022/04/25 06:24:06;;;;;;;1.80;1.13;;;9.00;99.90;;;;;;5027818;28;20179;-85
2022/04/25 06:26:34;;;;;;;1.17;1.13;;;9.20;99.90;;;;;;5031627;28;20345;-84
2022/04/25 06:29:00;;;;;;;1.13;1.10;;;9.20;99.90;;;;;;5033085;28;20232;-86
2022/04/25 06:31:26;;;;;;;1.47;1.17;;;9.20;99.90;;;;;;5031075;28;20243;-83
2022/04/25 06:33:51;;;;;;;2.93;1.50;;;9.20;99.90;;;;;;5029052;28;20295;-89
2022/04/25 06:36:17;;;;;;;1.03;1.03;;;9.20;99.90;;;;;;5041417;28;20369;-84
2022/04/25 06:38:43;;;;;;;9.53;2.07;;;9.20;99.90;;;;;;5023386;28;20194;-85
2022/04/25 06:41:09;;;;;;;3.63;1.47;;;9.20;99.90;;;;;;5029466;28;20249;-85
2022/04/25 06:43:36;;;;;;;1.60;1.50;;;9.20;99.90;;;;;;5050941;28;20661;-85
2022/04/25 06:46:02;;;;;;;5.00;1.40;;;9.20;99.90;;;;;;5032318;28;20238;-85
2022/04/25 06:48:28;;;;;;;2.20;0.80;;;9.20;99.90;;;;;;5031208;28;20233;-83
2022/04/25 06:50:55;;;;;;;1.07;0.97;;;9.30;99.90;;;;;;5050727;28;20190;-84
2022/04/25 06:53:21;;;;;;;6.20;1.43;;;9.20;99.90;;;;;;5036770;28;20659;-83
2022/04/25 06:55:47;;;;;;;4.53;2.13;;;9.20;99.90;;;;;;5036053;28;20229;-83
2022/04/25 06:58:13;;;;;;;1.70;1.60;;;9.20;99.90;;;;;;5033174;28;20248;-86
2022/04/25 07:00:39;;;;;;;2.60;1.43;;;9.20;99.90;;;;;;5025796;28;20218;-83
2022/04/25 07:03:05;;;;;;;5.73;1.27;;;9.10;99.90;;;;;;5050531;28;20289;-84
2022/04/25 07:05:31;;;;;;;0.80;0.80;;;9.10;99.90;;;;;;5033980;28;20328;-83
2022/04/25 07:07:57;;;;;;;2.00;0.70;;;9.20;99.90;;;;;;5049206;28;20763;-84
2022/04/25 07:10:23;;;;;;;2.73;1.10;;;9.20;99.90;;;;;;5053006;28;20231;-85
2022/04/25 07:12:48;;;;;;;2.37;1.70;;;9.20;99.90;;;;;;5033560;28;20241;-83
2022/04/25 07:15:14;;;;;;;1.43;1.33;;;9.30;99.90;;;;;;5042174;28;20230;-83
2022/04/25 07:17:40;;;;;;;1.60;1.50;;;9.50;99.90;;;;;;5048477;28;21029;-83
2022/04/25 07:20:06;;;;;;;0.73;0.73;;;9.70;99.90;;;;;;5035483;28;20222;-84
2022/04/25 07:30:44;;;;;;;1.03;0.77;;;9.60;99.90;;;;;;5034296;28;20230;-83
2022/04/25 07:33:10;;;;;;;8.80;1.30;;;9.60;99.90;;;;;;5036672;28;20229;-84
2022/04/25 07:35:36;;;;;;;1.70;1.30;;;9.80;99.90;;;;;;5032107;28;20574;-88
2022/04/25 07:38:02;;;;;;;1.40;1.17;;;9.90;99.90;;;;;;5029642;28;20703;-84
2022/04/25 07:40:28;;;;;;;1.47;1.23;;;9.90;99.90;;;;;;5028779;28;20569;-85
2022/04/25 07:42:55;;;;;;;0.70;0.70;;;9.80;99.90;;;;;;5034785;28;20237;-84
2022/04/25 07:45:21;;;;;;;2.87;0.97;;;9.90;99.90;;;;;;5027426;28;20226;-79
2022/04/25 07:47:47;;;;;;;3.13;1.20;;;9.90;99.90;;;;;;5047908;28;20657;-82
2022/04/25 07:50:15;;;;;;;1.07;0.67;;;10.10;99.90;;;;;;5052371;28;20250;-81
2022/04/25 07:52:41;;;;;;;1.57;1.47;;;10.20;99.90;;;;;;5029577;28;20211;-83
2022/04/25 07:55:07;;;;;;;1.03;0.73;;;10.10;99.90;;;;;;5023728;28;20217;-82
2022/04/25 07:57:34;;;;;;;2.40;1.23;;;10.10;99.90;;;;;;5047568;28;20707;-82
2022/04/25 08:00:00;;;;;;;2.07;0.90;;;10.20;99.90;;;;;;5031544;28;20654;-82
2022/04/25 08:02:26;;;;;;;14.83;1.57;;;10.10;99.90;;;;;;5025143;28;20182;-82
2022/04/25 08:04:52;;;;;;;1.70;0.90;;;10.00;99.90;;;;;;5029444;28;20213;-82
2022/04/25 08:07:17;;;;;;;0.70;0.70;;;9.80;99.90;;;;;;5033277;28;20245;-81
2022/04/25 08:09:43;;;;;;;1.63;1.27;;;9.90;99.90;;;;;;5047944;28;20751;-81
2022/04/25 08:20:23;;;;;;;1.17;1.00;;;11.00;99.90;;;;;;5028689;28;20219;-82
2022/04/25 08:22:50;;;;;;;10.67;1.40;;;10.80;99.90;;;;;;5028724;28;20223;-85
2022/04/25 08:25:16;;;;;;;2.50;1.00;;;11.30;99.90;;;;;;5022904;28;20230;-86
2022/04/25 08:27:42;;;;;;;5.13;0.80;;;12.20;99.90;;;;;;5028087;28;20234;-86
2022/04/25 08:30:08;;;;;;;0.93;0.70;;;12.00;99.90;;;;;;5025100;28;20190;-82
2022/04/25 08:32:34;;;;;;;0.67;0.67;;;11.50;99.90;;;;;;5032551;28;20196;-81
2022/04/25 08:35:01;;;;;;;15.97;1.70;;;11.40;99.90;;;;;;5033038;28;20581;-82
2022/04/25 08:37:28;;;;;;;0.97;0.80;;;11.60;99.90;;;;;;5046837;28;20379;-81
2022/04/25 08:39:53;;;;;;;0.87;0.83;;;11.30;99.90;;;;;;5045646;28;20309;-83
2022/04/25 08:42:20;;;;;;;4.80;1.60;;;10.90;99.90;;;;;;5028146;28;20309;-84
2022/04/25 08:44:55;;;;;;;0.93;0.70;;;11.10;99.90;;;;;;5036749;28;20200;-84
2022/04/25 08:47:26;;;;;;;1.73;1.57;;;11.50;99.90;;;;;;5029908;28;20241;-80
2022/04/25 08:49:52;;;;;;;1.50;1.40;;;12.00;99.90;;;;;;5029781;28;20236;-80
2022/04/25 08:52:18;;;;;;;0.90;0.90;;;12.30;99.90;;;;;;5035297;28;20226;-82
2022/04/25 08:54:46;;;;;;;3.13;1.50;;;11.70;99.90;;;;;;5031097;28;20225;-86
2022/04/25 08:57:13;;;;;;;3.67;1.27;;;12.30;99.90;;;;;;5030721;28;20217;-82
2022/04/25 08:59:39;;;;;;;3.20;1.10;;;12.70;99.90;;;;;;5046607;28;20194;-82
2022/04/25 09:02:06;;;;;;;3.20;1.50;;;12.70;99.90;;;;;;5029489;28;20218;-83
2022/04/25 09:04:32;;;;;;;5.97;1.67;;;13.20;99.90;;;;;;5031190;28;20230;-86
2022/04/25 09:06:59;;;;;;;4.53;2.03;;;12.60;99.90;;;;;;5047699;28;20248;-84
2022/04/25 09:09:25;;;;;;;1.27;1.17;;;12.30;99.90;;;;;;5030924;28;20226;-83
2022/04/25 09:12:10;;;;;;;2.40;1.73;;;11.60;99.90;;;;;;5048411;28;20194;-83
2022/04/25 09:14:44;;;;;;;4.87;1.30;;;11.40;99.90;;;;;;5039380;28;20189;-82
2022/04/25 09:17:10;;;;;;;2.57;0.97;;;11.40;99.90;;;;;;5034066;28;20585;-83
2022/04/25 09:19:37;;;;;;;0.67;0.67;;;11.20;99.90;;;;;;5025680;28;20257;-85
2022/04/25 09:22:04;;;;;;;3.43;1.90;;;11.10;99.90;;;;;;5024136;28;20704;-85
2022/04/25 09:24:33;;;;;;;1.17;0.80;;;11.30;99.90;;;;;;5046035;28;20234;-85
2022/04/25 09:27:07;;;;;;;1.87;1.40;;;11.30;99.90;;;;;;5030455;28;20214;-81
2022/04/25 09:29:34;;;;;;;2.33;1.00;;;11.50;99.90;;;;;;5036375;28;20603;-81
2022/04/25 09:32:00;;;;;;;1.30;0.93;;;11.60;99.90;;;;;;5035783;28;20279;-84
2022/04/25 09:37:14;;;;;;;1.73;1.43;;;11.70;99.90;;;;;;5029734;28;20234;-82
2022/04/25 09:39:40;;;;;;;2.43;1.83;;;11.70;99.90;;;;;;5037415;28;20308;-81
2022/04/25 09:42:07;;;;;;;1.57;1.13;;;12.00;99.90;;;;;;5030104;28;20216;-81
2022/04/25 09:44:53;;;;;;;2.10;1.37;;;11.80;99.90;;;;;;5033199;28;20205;-81
2022/04/25 09:47:30;;;;;;;0.90;0.80;;;11.70;99.90;;;;;;5047822;28;20361;-83
2022/04/25 09:50:07;;;;;;;4.23;1.23;;;11.70;99.90;;;;;;5031591;28;20225;-81
2022/04/25 09:52:35;;;;;;;1.73;1.13;;;11.50;99.90;;;;;;5027857;28;20683;-81
2022/04/25 09:55:15;;;;;;;1.27;1.17;;;11.50;99.90;;;;;;5028756;28;20296;-81
2022/04/25 09:57:42;;;;;;;1.53;1.03;;;11.60;99.90;;;;;;5034665;28;20225;-82
2022/04/25 10:00:09;;;;;;;2.87;1.43;;;11.60;99.90;;;;;;5035361;28;20730;-87
2022/04/25 10:02:39;;;;;;;0.77;0.77;;;11.50;99.90;;;;;;5031827;28;20186;-88
2022/04/25 10:05:15;;;;;;;3.63;1.00;;;11.90;99.90;;;;;;5027939;28;20647;-82
2022/04/25 10:07:43;;;;;;;1.20;1.10;;;12.10;99.90;;;;;;5030390;28;20582;-80
2022/04/25 10:10:10;;;;;;;3.80;1.63;;;11.90;99.90;;;;;;5030741;28;20694;-82
2022/04/25 10:12:37;;;;;;;3.53;0.77;;;12.00;99.90;;;;;;5023913;28;20220;-83
2022/04/25 10:15:04;;;;;;;8.23;1.53;;;12.10;99.90;;;;;;5038255;28;20190;-85
2022/04/25 10:17:31;;;;;;;6.50;1.17;;;12.30;99.90;;;;;;5033737;28;20336;-81
2022/04/25 10:20:00;;;;;;;1.50;0.83;;;12.00;99.90;;;;;;5048596;28;20242;-84
2022/04/25 10:22:26;;;;;;;1.47;1.03;;;11.90;99.90;;;;;;5032448;28;20374;-81
2022/04/25 10:24:52;;;;;;;3.53;1.80;;;12.00;99.90;;;;;;5035073;28;20226;-81
2022/04/25 10:27:24;;;;;;;1.90;1.27;;;11.80;99.90;;;;;;5050579;28;20226;-84
2022/04/25 10:29:53;;;;;;;6.73;1.70;;;11.50;99.90;;;;;;5034372;28;20197;-82
2022/04/25 10:32:23;;;;;;;3.87;2.50;;;11.60;99.90;;;;;;5032185;28;20190;-81
2022/04/25 10:34:56;;;;;;;1.73;1.03;;;11.60;99.90;;;;;;5036260;28;20210;-80
2022/04/25 10:37:34;;;;;;;3.63;1.93;;;11.70;99.90;;;;;;5030584;28;20222;-88
2022/04/25 10:40:04;;;;;;;2.23;0.90;;;11.50;99.90;;;;;;5048451;28;20205;-83
2022/04/25 10:45:15;;;;;;;1.33;1.23;;;11.50;99.90;;;;;;5048758;28;20321;-83
2022/04/25 10:47:58;;;;;;;3.17;1.10;;;11.60;99.90;;;;;;5034550;28;20395;-83
2022/04/25 10:50:24;;;;;;;1.00;0.97;;;11.30;99.90;;;;;;5035996;28;20214;-83
2022/04/25 10:55:36;;;;;;;0.93;0.93;;;11.90;99.90;;;;;;5049555;28;20217;-84
2022/04/25 10:58:01;;;;;;;1.17;1.07;;;12.00;99.90;;;;;;5034511;28;20722;-82
2022/04/25 11:03:06;;;;;;;1.80;0.83;;;12.00;99.90;;;;;;5032627;28;20184;-83
2022/04/25 11:05:33;;;;;;;1.57;0.70;;;12.00;99.90;;;;;;5037194;28;20187;-82
2022/04/25 11:08:18;;;;;;;4.70;1.43;;;11.60;99.90;;;;;;5029349;28;20375;-81
2022/04/25 11:10:56;;;;;;;0.83;0.83;;;11.60;99.90;;;;;;5032004;28;20214;-81
2022/04/25 11:13:25;;;;;;;3.27;1.33;;;11.40;99.90;;;;;;5033849;28;20280;-83
2022/04/25 11:15:54;;;;;;;1.73;1.20;;;11.30;99.90;;;;;;5048673;28;20276;-81
2022/04/25 11:18:33;;;;;;;2.07;1.00;;;11.70;99.90;;;;;;5036737;28;20702;-81
2022/04/25 11:21:12;;;;;;;2.77;1.30;;;11.60;99.90;;;;;;5033955;28;20187;-82
2022/04/25 11:23:44;;;;;;;0.90;0.90;;;11.70;99.90;;;;;;5049429;28;20185;-82
2022/04/25 11:26:33;;;;;;;8.23;2.10;;;11.60;99.90;;;;;;5037364;28;20241;-83
2022/04/25 11:29:11;;;;;;;16.77;1.33;;;11.90;99.90;;;;;;5035904;28;20262;-83
2022/04/25 11:31:39;;;;;;;0.50;0.50;;;11.60;99.90;;;;;;5034633;28;20206;-82
2022/04/25 11:34:07;;;;;;;1.23;1.13;;;11.60;99.90;;;;;;5047061;28;20245;-81
2022/04/25 11:36:41;;;;;;;0.57;0.57;;;11.90;99.90;;;;;;5033828;28;20221;-84
2022/04/25 11:41:52;;;;;;;1.03;0.93;;;11.70;99.90;;;;;;5033748;28;20289;-83
2022/04/25 11:44:18;;;;;;;3.73;1.30;;;12.00;99.90;;;;;;5034768;28;20293;-83
2022/04/25 11:46:45;;;;;;;2.93;1.20;;;12.20;99.90;;;;;;5031921;28;20355;-81
2022/04/25 11:49:11;;;;;;;5.27;0.70;;;12.10;99.90;;;;;;5032809;28;20226;-81
2022/04/25 11:51:40;;;;;;;1.83;1.10;;;12.00;99.90;;;;;;5026380;28;20765;-87
2022/04/25 11:54:08;;;;;;;2.03;1.10;;;12.40;99.90;;;;;;5047128;28;20198;-82
2022/04/25 11:56:41;;;;;;;2.00;0.93;;;12.30;99.90;;;;;;5034494;28;20200;-81
2022/04/25 11:59:11;;;;;;;1.70;1.30;;;12.70;99.90;;;;;;5037040;28;20504;-82
2022/04/25 12:01:38;;;;;;;2.90;1.67;;;12.70;99.90;;;;;;5031134;28;20229;-89
2022/04/25 12:04:20;;;;;;;1.93;1.33;;;12.40;99.90;;;;;;5035243;28;20279;-81
2022/04/25 12:06:57;;;;;;;1.27;1.13;;;12.00;99.90;;;;;;5034458;28;20330;-86
2022/04/25 12:15:34;;;;;;;1.13;1.03;;;12.50;99.90;;;;;;5037348;28;20667;-82
2022/04/25 12:18:21;;;;;;;3.70;1.77;;;12.70;99.90;;;;;;5034927;28;20182;-86
2022/04/25 12:20:58;;;;;;;0.87;0.87;;;13.10;99.90;;;;;;5030858;28;20195;-88
2022/04/25 12:23:33;;;;;;;9.57;2.57;;;12.80;99.90;;;;;;5031699;28;20298;-84
2022/04/25 12:26:03;;;;;;;2.67;1.20;;;12.90;99.90;;;;;;5029282;28;20722;-82
2022/04/25 12:28:30;;;;;;;0.83;0.83;;;12.90;99.90;;;;;;5036160;28;20226;-83
2022/04/25 12:31:03;;;;;;;16.47;2.60;;;12.80;99.90;;;;;;5049039;28;20222;-83
2022/04/25 12:33:34;;;;;;;1.07;1.00;;;13.00;99.90;;;;;;5045672;28;20230;-84
2022/04/25 12:36:09;;;;;;;0.57;0.43;;;12.50;99.90;;;;;;5031413;28;20187;-83
2022/04/25 12:38:41;;;;;;;0.60;0.60;;;12.20;99.90;;;;;;5032971;28;20351;-83
2022/04/25 12:41:09;;;;;;;1.80;1.33;;;12.10;99.90;;;;;;5030791;28;20279;-87
2022/04/25 12:43:45;;;;;;;1.60;1.10;;;12.30;99.90;;;;;;5032801;28;20244;-86
2022/04/25 12:46:16;;;;;;;2.50;1.73;;;12.30;99.90;;;;;;5031866;28;20240;-83
2022/04/25 12:48:56;;;;;;;0.77;0.67;;;12.50;99.90;;;;;;5032082;28;20257;-83
2022/04/25 12:51:29;;;;;;;1.50;1.40;;;12.30;99.90;;;;;;5046988;28;20218;-84
2022/04/25 12:53:55;;;;;;;1.83;1.07;;;12.10;99.90;;;;;;5032220;28;20184;-84
2022/04/25 12:56:31;;;;;;;1.83;1.60;;;12.20;99.90;;;;;;5031533;28;20258;-87
2022/04/25 12:58:57;;;;;;;0.67;0.60;;;12.60;99.90;;;;;;5032333;28;20210;-82
2022/04/25 13:01:29;;;;;;;0.87;0.87;;;12.30;99.90;;;;;;5046556;28;20578;-84
2022/04/25 13:04:13;;;;;;;3.80;1.53;;;12.30;99.90;;;;;;5032869;28;20236;-84
2022/04/25 13:06:41;;;;;;;1.40;1.30;;;12.20;99.90;;;;;;5030608;28;20732;-86
2022/04/25 13:09:07;;;;;;;1.30;1.10;;;12.20;99.90;;;;;;5035415;28;20749;-82
2022/04/25 13:11:32;;;;;;;1.07;1.00;;;12.20;99.90;;;;;;5032968;28;20206;-88
2022/04/25 13:13:59;;;;;;;1.83;1.27;;;12.10;99.90;;;;;;5046281;28;20280;-90
2022/04/25 13:16:25;;;;;;;5.87;1.33;;;12.20;99.90;;;;;;5030004;28;20246;-87
2022/04/25 13:18:50;;;;;;;3.53;1.33;;;12.40;99.90;;;;;;5030105;28;20296;-87
2022/04/25 13:21:17;;;;;;;1.37;1.17;;;12.70;99.90;;;;;;5024370;28;20222;-87
2022/04/25 13:23:42;;;;;;;2.50;0.80;;;12.50;99.90;;;;;;5040486;28;20251;-87
2022/04/25 13:26:09;;;;;;;1.47;1.23;;;12.60;99.90;;;;;;5027784;28;20227;-87
2022/04/25 13:28:35;;;;;;;1.77;1.17;;;12.80;99.90;;;;;;5048681;28;20214;-86
2022/04/25 13:31:02;;;;;;;1.80;1.00;;;12.70;99.90;;;;;;5045702;28;20217;-82
2022/04/25 13:33:28;;;;;;;0.83;0.83;;;12.60;99.90;;;;;;5022941;28;20263;-84
2022/04/25 13:35:53;;;;;;;1.23;1.10;;;12.60;99.90;;;;;;5051511;28;20320;-83
2022/04/25 13:38:20;;;;;;;1.67;1.13;;;12.60;99.90;;;;;;5032522;28;20836;-82
2022/04/25 13:40:47;;;;;;;4.27;1.27;;;12.50;99.90;;;;;;5032324;28;20591;-83